Time;durP1;ratioP1;P1;durP2;ratioP2;P2;SDS_P1;SDS_P2;PMS_P1;PMS_P2;Temp;Humidity;BMP_temperature;BMP_pressure;BME280_temperature;BME280_humidity;BME280_pressure;Samples;Min_cycle;Max_cycle;Signal;HPM_P1;HPM_P2
2022/03/25 00:07:56;;;;;;;;;;;;;;;8.75;42.63;98903.94;5034881;28;19925;-81
2022/03/25 00:23:50;;;;;;;;;;;;;;;8.17;42.96;98914.28;5027819;28;20043;-81
2022/03/25 00:51:54;;;;;;;;;;;;;;;7.83;42.77;98901.28;5049451;28;19925;-80
2022/03/25 01:18:51;;;;;;;;;;;;;;;7.63;45.25;98890.44;4954464;28;19921;-81
2022/03/25 02:30:26;;;;;;;;;;;;;;;5.88;48.61;98875.47;4762436;30;19930;-80
2022/03/25 05:30:14;;;;;;;;;;;;;;;4.45;51.78;98908.84;5148570;22;19908;-81
2022/03/25 05:44:57;;;;;;;;;;;;;;;4.26;52.46;98929.81;5131034;22;19909;-78
2022/03/25 05:47:52;;;;;;;;;;;;;;;4.26;52.90;98934.34;5053287;28;19948;-79
2022/03/25 05:50:49;;;;;;;;;;;;;;;4.34;52.81;98933.97;5067536;28;19928;-79
2022/03/25 06:01:25;;;;;;;;;;;;;;;4.81;51.42;98944.34;4988176;28;19969;-77
2022/03/25 06:04:36;;;;;;;;;;;;;;;4.67;51.89;98941.97;5003946;28;19926;-70
2022/03/25 06:22:15;;;;;;;;;;;;;;;4.57;52.46;98955.28;4948562;28;19937;-74
2022/03/25 06:24:43;;;;;;;;;;;;;;;4.56;52.39;98958.25;5012641;28;19925;-76
2022/03/25 06:27:11;;;;;;;;;;;;;;;4.44;52.96;98955.66;4999933;28;20414;-74
2022/03/25 06:29:40;;;;;;;;;;;;;;;4.44;52.83;98958.34;5021441;28;20028;-75
2022/03/25 06:32:13;;;;;;;;;;;;;;;4.48;52.79;98956.78;5012140;28;20646;-73
2022/03/25 06:34:44;;;;;;;;;;;;;;;4.80;51.91;98956.19;4998041;28;20132;-73
2022/03/25 06:37:12;;;;;;;;;;;;;;;4.89;52.14;98957.34;5001829;28;19926;-73
2022/03/25 06:39:42;;;;;;;;;;;;;;;4.59;52.91;98963.13;4998598;28;19947;-72
2022/03/25 06:42:10;;;;;;;;;;;;;;;4.94;51.81;98955.53;4987777;28;20088;-72
2022/03/25 06:44:39;;;;;;;;;;;;;;;4.98;52.01;98953.19;4987064;28;19925;-73
2022/03/25 06:47:07;;;;;;;;;;;;;;;5.24;51.27;98959.72;4996131;28;19925;-73
2022/03/25 06:49:38;;;;;;;;;;;;;;;5.28;50.91;98960.84;5012075;28;19932;-73
2022/03/25 06:52:09;;;;;;;;;;;;;;;5.07;51.95;98962.47;5013929;28;19932;-73
2022/03/25 06:54:39;;;;;;;;;;;;;;;5.29;51.59;98967.03;4998297;28;20023;-73
2022/03/25 06:57:09;;;;;;;;;;;;;;;5.51;51.03;98970.53;5014278;28;19936;-72
2022/03/25 06:59:37;;;;;;;;;;;;;;;5.88;49.93;98969.84;4998113;28;19925;-73
2022/03/25 07:02:06;;;;;;;;;;;;;;;5.78;50.45;98970.56;5014651;28;19972;-73
2022/03/25 07:04:34;;;;;;;;;;;;;;;5.87;50.42;98968.22;4994481;28;20363;-73
2022/03/25 07:07:04;;;;;;;;;;;;;;;5.76;49.90;98972.72;5014360;28;19929;-73
2022/03/25 07:09:35;;;;;;;;;;;;;;;5.88;49.97;98972.56;4982610;28;20048;-73
2022/03/25 07:12:05;;;;;;;;;;;;;;;6.05;49.57;98973.28;5012768;28;19933;-73
2022/03/25 07:14:33;;;;;;;;;;;;;;;6.49;49.19;98971.22;4987907;28;19929;-73
2022/03/25 07:17:02;;;;;;;;;;;;;;;6.59;48.41;98975.06;4989849;28;19929;-73
2022/03/25 07:19:32;;;;;;;;;;;;;;;6.35;48.61;98977.34;5007198;28;20023;-73
2022/03/25 07:22:00;;;;;;;;;;;;;;;6.49;48.37;98981.22;5014214;28;19935;-73
2022/03/25 07:24:30;;;;;;;;;;;;;;;6.75;48.36;98980.31;5031125;28;19925;-73
2022/03/25 07:26:58;;;;;;;;;;;;;;;6.95;47.43;98981.53;4993329;28;19927;-73
2022/03/25 07:29:26;;;;;;;;;;;;;;;7.18;46.74;98983.81;4996460;28;19932;-73
2022/03/25 07:31:54;;;;;;;;;;;;;;;7.42;46.43;98984.19;4997970;28;19926;-72
2022/03/25 07:34:22;;;;;;;;;;;;;;;7.24;46.47;98985.44;4994165;28;19994;-73
2022/03/25 07:36:50;;;;;;;;;;;;;;;7.45;46.37;98993.66;5011943;28;19973;-73
2022/03/25 07:39:19;;;;;;;;;;;;;;;7.35;46.27;98992.56;5000420;28;19925;-73
2022/03/25 07:41:51;;;;;;;;;;;;;;;7.65;46.60;98990.22;5011849;28;20012;-73
2022/03/25 07:44:24;;;;;;;;;;;;;;;7.98;46.14;98992.47;5012573;28;20303;-73
2022/03/25 07:46:55;;;;;;;;;;;;;;;8.21;45.38;98991.16;5009881;28;20017;-73
2022/03/25 07:49:24;;;;;;;;;;;;;;;8.37;43.91;98989.31;5009759;28;19925;-73
2022/03/25 07:51:53;;;;;;;;;;;;;;;8.73;42.93;98997.41;4995210;28;19937;-73
2022/03/25 07:54:21;;;;;;;;;;;;;;;8.58;42.98;98996.34;4994439;28;19930;-73
2022/03/25 07:56:54;;;;;;;;;;;;;;;8.91;42.55;98989.53;4995120;28;20407;-73
2022/03/25 07:59:23;;;;;;;;;;;;;;;8.88;42.77;98995.50;4988537;28;19933;-73
2022/03/25 08:01:52;;;;;;;;;;;;;;;9.05;42.18;98988.97;4989191;28;20392;-73
2022/03/25 08:04:24;;;;;;;;;;;;;;;9.15;41.96;98997.06;4992922;28;20436;-73
2022/03/25 08:06:53;;;;;;;;;;;;;;;9.00;42.22;98994.38;4991782;28;20602;-73
2022/03/25 08:09:22;;;;;;;;;;;;;;;9.06;42.29;98986.00;4980256;28;20340;-73
2022/03/25 08:11:53;;;;;;;;;;;;;;;9.08;42.42;98991.13;4992447;28;20402;-73
2022/03/25 08:14:23;;;;;;;;;;;;;;;9.27;42.18;98986.75;4978349;28;19968;-73
2022/03/25 08:16:51;;;;;;;;;;;;;;;9.57;41.71;98983.09;4993039;28;20403;-73
2022/03/25 08:19:20;;;;;;;;;;;;;;;9.75;41.35;98992.53;4971464;28;19934;-73
2022/03/25 08:21:48;;;;;;;;;;;;;;;10.04;40.85;98991.81;4978698;28;20419;-73
2022/03/25 08:29:51;;;;;;;;;;;;;;;10.80;38.93;98993.13;4987959;28;20394;-73
2022/03/25 08:32:20;;;;;;;;;;;;;;;11.00;39.29;98993.75;4975756;28;19926;-73
2022/03/25 08:34:48;;;;;;;;;;;;;;;11.20;37.84;98991.94;4990609;28;19925;-73
2022/03/25 08:37:25;;;;;;;;;;;;;;;11.06;38.52;98989.06;4987897;28;19925;-73
2022/03/25 08:39:53;;;;;;;;;;;;;;;10.82;38.99;98989.06;4988418;28;19929;-73
2022/03/25 08:42:23;;;;;;;;;;;;;;;10.90;38.93;98985.69;5005429;28;19984;-73
2022/03/25 08:44:52;;;;;;;;;;;;;;;10.99;39.43;98986.69;5005716;28;19937;-73
2022/03/25 08:47:50;;;;;;;;;;;;;;;11.38;38.90;98988.44;4994785;28;20375;-73
2022/03/25 08:50:19;;;;;;;;;;;;;;;11.60;36.24;98981.66;4977136;28;19926;-73
2022/03/25 08:55:41;;;;;;;;;;;;;;;12.03;35.79;98990.63;4983429;28;19929;-73
2022/03/25 08:58:10;;;;;;;;;;;;;;;11.98;35.34;98991.50;4996790;28;19925;-73
2022/03/25 09:00:41;;;;;;;;;;;;;;;12.23;35.89;98992.25;4981612;28;19926;-73
2022/03/25 09:03:09;;;;;;;;;;;;;;;12.29;35.85;98988.34;4982810;28;19932;-73
2022/03/25 09:05:38;;;;;;;;;;;;;;;12.26;36.33;98989.75;4999966;28;19926;-73
2022/03/25 09:08:06;;;;;;;;;;;;;;;12.43;36.43;98993.84;4991208;28;20410;-73
2022/03/25 09:10:35;;;;;;;;;;;;;;;12.52;35.90;98984.72;4985423;28;19926;-73
2022/03/25 09:13:06;;;;;;;;;;;;;;;12.41;36.74;98986.00;4997831;28;19932;-73
2022/03/25 09:15:36;;;;;;;;;;;;;;;12.90;36.51;98984.63;5013726;28;19925;-73
2022/03/25 09:18:05;;;;;;;;;;;;;;;13.39;35.32;98987.81;4980779;28;19925;-73
2022/03/25 09:20:34;;;;;;;;;;;;;;;13.29;34.89;98981.44;4981486;28;19926;-73
2022/03/25 09:23:04;;;;;;;;;;;;;;;13.38;35.36;98981.56;4999221;28;19925;-73
2022/03/25 09:25:32;;;;;;;;;;;;;;;13.39;35.22;98977.72;4996406;28;20459;-73
2022/03/25 09:28:00;;;;;;;;;;;;;;;13.59;34.45;98982.75;4986201;28;19926;-73
2022/03/25 09:30:28;;;;;;;;;;;;;;;13.78;34.04;98984.53;5004066;28;19932;-73
2022/03/25 09:33:07;;;;;;;;;;;;;;;13.79;31.06;98980.69;4975473;28;20024;-73
2022/03/25 09:35:36;;;;;;;;;;;;;;;13.90;31.93;98979.34;5004808;28;19953;-73
2022/03/25 09:38:05;;;;;;;;;;;;;;;14.18;31.45;98971.91;4989258;28;19975;-73
2022/03/25 09:40:33;;;;;;;;;;;;;;;14.41;31.03;98976.25;4986362;28;19933;-73
2022/03/25 09:43:05;;;;;;;;;;;;;;;14.65;30.79;98976.00;4979705;28;19925;-73
2022/03/25 09:45:35;;;;;;;;;;;;;;;14.93;29.70;98981.31;4984585;28;19925;-73
2022/03/25 09:48:07;;;;;;;;;;;;;;;14.75;30.92;98985.84;4991321;28;19926;-73
2022/03/25 09:50:40;;;;;;;;;;;;;;;14.72;28.94;98982.94;4980482;28;20399;-73
2022/03/25 09:53:30;;;;;;;;;;;;;;;15.25;29.68;98971.97;4990915;28;19979;-73
2022/03/25 09:56:00;;;;;;;;;;;;;;;15.17;30.19;98975.44;5005212;28;19929;-73
2022/03/25 09:58:28;;;;;;;;;;;;;;;15.39;30.16;98978.13;4980918;28;19925;-73
2022/03/25 10:00:56;;;;;;;;;;;;;;;15.74;28.14;98982.94;4996977;28;19949;-73
2022/03/25 10:03:33;;;;;;;;;;;;;;;15.84;28.60;98972.47;4994285;28;19975;-73
2022/03/25 10:06:02;;;;;;;;;;;;;;;16.09;27.85;98973.63;4977730;28;19933;-73
2022/03/25 10:08:35;;;;;;;;;;;;;;;16.07;28.50;98975.88;4980669;28;19976;-74
2022/03/25 10:11:20;;;;;;;;;;;;;;;15.68;28.14;98972.13;4998045;28;19976;-73
2022/03/25 10:13:50;;;;;;;;;;;;;;;15.85;28.20;98973.28;4997044;28;20028;-74
2022/03/25 10:16:27;;;;;;;;;;;;;;;15.60;28.89;98974.78;4996835;28;19929;-73
2022/03/25 10:18:59;;;;;;;;;;;;;;;15.69;28.12;98972.94;4980289;28;20395;-73
2022/03/25 10:21:28;;;;;;;;;;;;;;;15.61;27.73;98962.75;4982793;28;20295;-73
2022/03/25 10:23:55;;;;;;;;;;;;;;;15.87;28.23;98968.28;4979185;28;19926;-73
2022/03/25 10:26:27;;;;;;;;;;;;;;;15.59;28.60;98971.25;4999403;28;19933;-73
2022/03/25 10:28:57;;;;;;;;;;;;;;;15.91;29.27;98961.84;4987587;28;20395;-73
2022/03/25 10:31:26;;;;;;;;;;;;;;;16.29;28.13;98971.38;4976368;28;19983;-73
2022/03/25 10:33:57;;;;;;;;;;;;;;;16.57;26.27;98967.16;4992205;28;19925;-73
2022/03/25 10:36:29;;;;;;;;;;;;;;;16.64;26.25;98972.97;4972475;28;19948;-72
2022/03/25 10:39:01;;;;;;;;;;;;;;;16.66;26.53;98973.44;4995357;28;20483;-73
2022/03/25 10:41:36;;;;;;;;;;;;;;;16.36;25.36;98958.00;4979558;28;20264;-73
2022/03/25 10:44:05;;;;;;;;;;;;;;;16.45;25.26;98959.56;5006949;28;19925;-73
2022/03/25 10:46:34;;;;;;;;;;;;;;;16.27;25.40;98951.69;4992442;28;20285;-73
2022/03/25 10:49:05;;;;;;;;;;;;;;;16.61;25.77;98957.13;4996306;28;19933;-73
2022/03/25 10:51:35;;;;;;;;;;;;;;;16.42;26.38;98962.19;4995620;28;19926;-73
2022/03/25 10:54:05;;;;;;;;;;;;;;;16.61;25.50;98957.13;4990939;28;19964;-73
2022/03/25 10:56:42;;;;;;;;;;;;;;;16.57;24.71;98950.72;4995623;28;19929;-73
2022/03/25 10:59:20;;;;;;;;;;;;;;;16.47;24.55;98959.28;5013031;28;20382;-73
2022/03/25 11:01:50;;;;;;;;;;;;;;;16.59;24.36;98964.91;4990079;28;19968;-73
2022/03/25 11:04:18;;;;;;;;;;;;;;;16.45;24.61;98958.78;4981985;28;19936;-73
2022/03/25 11:06:48;;;;;;;;;;;;;;;16.54;24.73;98954.09;4976305;28;20280;-73
2022/03/25 11:09:17;;;;;;;;;;;;;;;16.47;24.91;98956.53;5007556;28;19971;-74
2022/03/25 11:11:49;;;;;;;;;;;;;;;16.14;25.72;98953.47;4977459;28;20159;-73
2022/03/25 11:14:17;;;;;;;;;;;;;;;16.27;25.37;98954.44;4973018;28;19941;-73
2022/03/25 11:16:48;;;;;;;;;;;;;;;16.32;26.02;98957.03;4978967;28;19925;-72
2022/03/25 11:19:16;;;;;;;;;;;;;;;16.28;24.90;98951.38;4999855;28;19926;-72
2022/03/25 11:21:45;;;;;;;;;;;;;;;16.35;24.24;98957.19;4976739;28;19983;-72
2022/03/25 11:24:16;;;;;;;;;;;;;;;16.33;24.78;98955.88;4984144;28;19926;-72
2022/03/25 11:26:48;;;;;;;;;;;;;;;16.37;24.56;98956.88;5006877;28;19932;-72
2022/03/25 11:29:22;;;;;;;;;;;;;;;16.60;24.00;98955.53;4978773;28;19925;-72
2022/03/25 11:32:04;;;;;;;;;;;;;;;16.46;23.74;98952.19;4995694;28;19926;-72
2022/03/25 11:34:36;;;;;;;;;;;;;;;16.67;23.00;98949.53;4973922;28;19932;-73
2022/03/25 11:37:23;;;;;;;;;;;;;;;16.55;23.42;98957.63;4994537;28;19929;-72
2022/03/25 11:40:27;;;;;;;;;;;;;;;16.63;23.58;98943.91;5002590;28;20518;-72
2022/03/25 11:42:59;;;;;;;;;;;;;;;16.70;23.90;98944.22;4990981;28;20295;-72
2022/03/25 11:45:35;;;;;;;;;;;;;;;16.71;24.36;98937.63;4972020;28;19983;-72
2022/03/25 11:48:27;;;;;;;;;;;;;;;16.75;23.95;98935.03;5011462;28;19948;-73
2022/03/25 11:50:56;;;;;;;;;;;;;;;16.91;24.26;98933.38;4982197;28;19926;-73
2022/03/25 11:53:31;;;;;;;;;;;;;;;17.02;23.88;98929.13;5010917;28;20415;-73
2022/03/25 11:56:01;;;;;;;;;;;;;;;16.88;24.45;98923.03;4983204;28;20402;-73
2022/03/25 11:58:30;;;;;;;;;;;;;;;17.04;24.04;98928.78;4979253;28;19925;-72
2022/03/25 12:01:18;;;;;;;;;;;;;;;17.03;23.59;98925.25;4995160;28;19971;-73
2022/03/25 12:03:58;;;;;;;;;;;;;;;17.29;23.42;98911.41;4991859;28;19965;-73
2022/03/25 12:06:28;;;;;;;;;;;;;;;17.26;24.28;98917.56;4965098;28;19929;-72
2022/03/25 12:08:57;;;;;;;;;;;;;;;17.05;24.12;98908.47;4993587;28;19948;-72
2022/03/25 12:11:52;;;;;;;;;;;;;;;16.82;24.48;98907.88;5007942;28;20375;-73
2022/03/25 12:14:26;;;;;;;;;;;;;;;16.91;24.66;98910.63;4960431;28;20451;-73
2022/03/25 12:16:55;;;;;;;;;;;;;;;17.10;23.71;98907.44;5006424;28;19993;-72
2022/03/25 12:19:42;;;;;;;;;;;;;;;17.28;23.84;98904.31;4996596;28;20291;-73
2022/03/25 12:22:25;;;;;;;;;;;;;;;16.86;24.17;98897.06;4988526;28;20196;-73
2022/03/25 12:24:54;;;;;;;;;;;;;;;17.07;23.84;98899.91;4984645;28;19933;-72
2022/03/25 12:27:23;;;;;;;;;;;;;;;16.99;23.95;98898.78;4990371;28;19945;-72
2022/03/25 12:29:54;;;;;;;;;;;;;;;16.97;23.65;98901.06;4980747;28;21048;-73
2022/03/25 12:32:23;;;;;;;;;;;;;;;16.99;23.65;98894.13;4982249;28;20288;-73
2022/03/25 12:34:54;;;;;;;;;;;;;;;16.99;24.09;98887.78;4992489;28;19974;-72
2022/03/25 12:37:24;;;;;;;;;;;;;;;16.91;23.41;98885.91;5011978;28;19926;-73
2022/03/25 12:40:18;;;;;;;;;;;;;;;16.94;23.67;98882.53;4995300;28;20295;-73
2022/03/25 12:42:49;;;;;;;;;;;;;;;16.93;23.25;98886.38;4981147;28;19972;-73
2022/03/25 12:45:18;;;;;;;;;;;;;;;16.99;23.23;98893.28;4996333;28;19925;-73
2022/03/25 12:47:49;;;;;;;;;;;;;;;16.97;23.36;98888.13;4986832;28;20376;-73
2022/03/25 12:50:21;;;;;;;;;;;;;;;17.00;23.07;98883.94;4994202;28;19925;-73
2022/03/25 12:53:00;;;;;;;;;;;;;;;17.21;23.63;98882.06;4996083;28;20104;-73
2022/03/25 12:55:32;;;;;;;;;;;;;;;17.21;23.09;98879.31;4984854;28;20336;-73
2022/03/25 12:58:07;;;;;;;;;;;;;;;17.22;23.09;98872.69;4978961;28;19957;-73
2022/03/25 13:00:39;;;;;;;;;;;;;;;17.29;22.77;98878.44;5012405;28;19925;-72
2022/03/25 13:03:08;;;;;;;;;;;;;;;17.18;22.62;98868.97;4975737;28;19929;-73
2022/03/25 13:05:37;;;;;;;;;;;;;;;17.44;22.11;98863.34;4997736;28;19926;-73
2022/03/25 13:08:06;;;;;;;;;;;;;;;17.66;22.41;98872.41;4998261;28;19925;-73
2022/03/25 13:10:40;;;;;;;;;;;;;;;17.79;21.89;98863.13;5001137;28;19953;-73
2022/03/25 13:13:09;;;;;;;;;;;;;;;17.19;22.26;98862.34;4984241;28;19932;-73
2022/03/25 13:15:45;;;;;;;;;;;;;;;17.27;22.19;98866.19;4994215;28;19925;-72
2022/03/25 13:18:14;;;;;;;;;;;;;;;17.36;22.28;98860.63;4984352;28;19925;-73
2022/03/25 13:20:44;;;;;;;;;;;;;;;17.34;22.29;98852.72;4994925;28;20303;-72
2022/03/25 13:23:14;;;;;;;;;;;;;;;17.26;22.31;98861.84;4981328;28;19985;-71
2022/03/25 13:25:42;;;;;;;;;;;;;;;17.17;22.62;98855.59;4994686;28;19929;-71
2022/03/25 13:28:11;;;;;;;;;;;;;;;17.34;22.22;98858.22;4978410;28;20353;-71
2022/03/25 13:30:39;;;;;;;;;;;;;;;17.51;22.26;98860.06;4989463;28;19932;-71
2022/03/25 13:33:34;;;;;;;;;;;;;;;17.37;22.12;98854.03;4998173;28;20048;-73
2022/03/25 13:36:10;;;;;;;;;;;;;;;17.35;22.85;98842.56;4980844;28;19937;-72
2022/03/25 13:38:44;;;;;;;;;;;;;;;17.28;22.95;98849.38;4984235;28;19976;-73
2022/03/25 13:41:13;;;;;;;;;;;;;;;17.20;23.87;98847.47;4987464;28;19930;-71
2022/03/25 13:43:43;;;;;;;;;;;;;;;17.31;23.57;98852.59;4980811;28;19934;-72
2022/03/25 13:46:19;;;;;;;;;;;;;;;17.27;24.00;98842.28;4994148;28;19996;-72
2022/03/25 13:48:50;;;;;;;;;;;;;;;17.22;23.71;98847.97;4990836;28;19929;-71
2022/03/25 13:51:24;;;;;;;;;;;;;;;17.26;24.11;98839.88;4991964;28;20399;-72
2022/03/25 13:53:57;;;;;;;;;;;;;;;17.06;24.58;98835.16;5010172;28;20008;-72
2022/03/25 13:56:34;;;;;;;;;;;;;;;17.27;23.93;98839.53;5005868;28;19933;-73
2022/03/25 13:59:02;;;;;;;;;;;;;;;17.19;23.90;98834.88;4975314;28;20372;-72
2022/03/25 14:01:35;;;;;;;;;;;;;;;17.29;23.65;98839.19;4974412;28;19930;-72
2022/03/25 14:04:06;;;;;;;;;;;;;;;17.26;23.92;98835.19;4974586;28;19961;-73
2022/03/25 14:06:39;;;;;;;;;;;;;;;16.85;23.87;98835.88;4988006;28;20410;-73
2022/03/25 14:09:29;;;;;;;;;;;;;;;17.20;24.25;98841.97;4995391;28;19932;-73
2022/03/25 14:11:59;;;;;;;;;;;;;;;17.37;24.30;98830.09;4997953;28;19933;-72
2022/03/25 14:14:29;;;;;;;;;;;;;;;17.34;24.01;98825.28;4980224;28;19932;-73
2022/03/25 14:16:58;;;;;;;;;;;;;;;16.83;24.67;98826.34;4996737;28;19949;-73
2022/03/25 14:19:28;;;;;;;;;;;;;;;17.00;24.88;98831.78;5013285;28;20392;-73
2022/03/25 14:21:57;;;;;;;;;;;;;;;17.10;24.06;98834.16;4993807;28;19926;-73
2022/03/25 14:24:33;;;;;;;;;;;;;;;16.96;23.90;98826.16;5016195;28;19960;-72
2022/03/25 14:27:05;;;;;;;;;;;;;;;16.90;24.10;98826.66;4984781;28;19925;-72
2022/03/25 14:29:34;;;;;;;;;;;;;;;17.13;23.97;98819.75;4992085;28;19929;-73
2022/03/25 14:32:03;;;;;;;;;;;;;;;17.21;23.95;98821.66;4977970;28;19933;-73
2022/03/25 14:34:39;;;;;;;;;;;;;;;17.13;23.73;98805.22;4991777;28;19932;-73
2022/03/25 14:37:09;;;;;;;;;;;;;;;17.01;24.09;98814.16;4976751;28;20020;-73
2022/03/25 14:39:37;;;;;;;;;;;;;;;17.13;23.26;98816.19;4996051;28;19926;-73
2022/03/25 14:42:06;;;;;;;;;;;;;;;17.08;23.72;98819.94;4994639;28;19932;-73
2022/03/25 14:44:36;;;;;;;;;;;;;;;17.03;24.17;98814.63;4995851;28;19969;-72
2022/03/25 14:47:11;;;;;;;;;;;;;;;16.77;24.00;98812.03;4979818;28;19925;-73
2022/03/25 14:49:39;;;;;;;;;;;;;;;16.66;24.59;98808.00;4994700;28;20000;-73
2022/03/25 14:52:10;;;;;;;;;;;;;;;16.88;24.29;98809.72;4978470;28;19929;-73
2022/03/25 14:54:39;;;;;;;;;;;;;;;16.86;23.77;98804.56;4979219;28;19925;-73
2022/03/25 14:57:11;;;;;;;;;;;;;;;16.65;24.21;98798.16;4995308;28;19925;-73
2022/03/25 14:59:42;;;;;;;;;;;;;;;16.70;23.84;98809.75;5012383;28;19926;-73
2022/03/25 15:02:11;;;;;;;;;;;;;;;16.73;23.59;98806.41;4989074;28;20396;-73
2022/03/25 15:04:40;;;;;;;;;;;;;;;16.80;23.53;98807.81;5000228;28;19925;-73
2022/03/25 15:07:12;;;;;;;;;;;;;;;16.86;22.98;98804.56;4994699;28;19937;-73
2022/03/25 15:09:40;;;;;;;;;;;;;;;16.82;22.94;98800.84;5001106;28;19925;-73
2022/03/25 15:12:14;;;;;;;;;;;;;;;16.94;22.79;98811.16;4997997;28;19925;-73
2022/03/25 15:14:44;;;;;;;;;;;;;;;16.82;23.96;98802.81;4995253;28;19925;-73
2022/03/25 15:17:13;;;;;;;;;;;;;;;16.87;23.14;98806.16;4998281;28;20391;-73
2022/03/25 15:19:41;;;;;;;;;;;;;;;16.77;22.96;98804.59;5004272;28;19926;-73
2022/03/25 15:22:12;;;;;;;;;;;;;;;16.73;23.26;98802.84;4975360;28;19925;-73
2022/03/25 15:24:42;;;;;;;;;;;;;;;16.81;24.05;98809.44;4989158;28;20386;-72
2022/03/25 15:27:10;;;;;;;;;;;;;;;16.98;23.37;98806.59;5010063;28;19995;-73
2022/03/25 15:35:10;;;;;;;;;;;;;;;16.90;22.75;98811.00;4967761;28;19925;-73
2022/03/25 15:38:01;;;;;;;;;;;;;;;16.88;23.74;98799.53;4986357;28;20001;-73
2022/03/25 15:40:30;;;;;;;;;;;;;;;16.80;23.03;98797.66;4995462;28;19925;-73
2022/03/25 15:42:58;;;;;;;;;;;;;;;16.82;23.38;98802.81;4999794;28;20452;-73
2022/03/25 15:45:27;;;;;;;;;;;;;;;16.66;23.20;98800.56;4995096;28;19933;-73
2022/03/25 15:47:55;;;;;;;;;;;;;;;16.70;23.74;98801.53;4995456;28;19926;-72
2022/03/25 15:50:24;;;;;;;;;;;;;;;16.61;23.92;98802.69;4993301;28;20363;-73
2022/03/25 15:52:57;;;;;;;;;;;;;;;16.69;24.01;98805.41;4994735;28;19929;-73
2022/03/25 15:55:27;;;;;;;;;;;;;;;16.52;24.40;98799.22;4984763;28;19930;-73
2022/03/25 15:57:59;;;;;;;;;;;;;;;16.64;23.96;98789.13;4959968;28;19936;-73
2022/03/25 16:00:28;;;;;;;;;;;;;;;16.65;23.94;98804.47;4979866;28;20012;-72
2022/03/25 16:02:56;;;;;;;;;;;;;;;16.52;23.86;98805.50;4960985;28;20029;-72
2022/03/25 16:05:24;;;;;;;;;;;;;;;16.47;23.54;98803.72;4990454;28;20379;-72
2022/03/25 16:07:58;;;;;;;;;;;;;;;16.47;23.81;98805.69;4977412;28;19930;-73
2022/03/25 16:10:30;;;;;;;;;;;;;;;16.55;23.52;98806.75;4992041;28;19932;-73
2022/03/25 16:13:00;;;;;;;;;;;;;;;16.42;23.57;98805.84;4955059;28;19926;-73
2022/03/25 16:15:29;;;;;;;;;;;;;;;16.55;23.85;98815.00;4962729;28;19933;-72
2022/03/25 16:17:57;;;;;;;;;;;;;;;16.60;23.63;98815.63;4962868;28;19933;-72
2022/03/25 16:20:28;;;;;;;;;;;;;;;16.42;22.99;98814.88;4975516;28;19930;-72
2022/03/25 16:22:56;;;;;;;;;;;;;;;16.57;23.47;98813.53;4975519;28;19930;-72
2022/03/25 16:25:24;;;;;;;;;;;;;;;16.49;23.38;98809.69;4974520;28;20407;-72
2022/03/25 16:27:55;;;;;;;;;;;;;;;16.48;23.78;98813.56;4973111;28;20388;-72
2022/03/25 16:30:23;;;;;;;;;;;;;;;16.45;23.56;98814.22;4972350;28;19936;-72
2022/03/25 16:32:53;;;;;;;;;;;;;;;16.49;23.92;98808.88;4972937;28;19930;-72
2022/03/25 16:35:22;;;;;;;;;;;;;;;16.35;23.54;98817.34;4975919;28;19932;-72
2022/03/25 16:37:52;;;;;;;;;;;;;;;16.31;24.32;98813.63;4976282;28;19926;-72
2022/03/25 16:40:20;;;;;;;;;;;;;;;16.15;24.23;98815.28;4971729;28;20388;-72
2022/03/25 16:42:50;;;;;;;;;;;;;;;16.04;24.44;98814.81;4968117;28;20024;-72
2022/03/25 16:45:20;;;;;;;;;;;;;;;15.97;24.47;98817.22;4978507;28;19933;-72
2022/03/25 16:47:49;;;;;;;;;;;;;;;15.91;25.37;98818.53;4964422;28;19932;-71
2022/03/25 16:50:20;;;;;;;;;;;;;;;15.88;25.18;98819.19;4971197;28;19926;-72
2022/03/25 16:55:40;;;;;;;;;;;;;;;15.78;26.15;98825.00;4992235;28;20339;-72
2022/03/25 16:58:08;;;;;;;;;;;;;;;15.71;26.07;98834.50;5010736;28;19929;-76
2022/03/25 17:00:38;;;;;;;;;;;;;;;15.75;26.17;98839.34;4991784;28;19926;-72
2022/03/25 17:03:06;;;;;;;;;;;;;;;15.58;26.66;98840.91;4986635;28;19933;-71
2022/03/25 17:05:38;;;;;;;;;;;;;;;15.46;26.83;98840.75;5013644;28;20020;-71
2022/03/25 17:08:06;;;;;;;;;;;;;;;15.47;27.20;98842.34;4998079;28;20284;-73
2022/03/25 17:10:34;;;;;;;;;;;;;;;15.38;27.34;98845.06;4978724;28;19925;-73
2022/03/25 17:13:03;;;;;;;;;;;;;;;15.27;27.46;98849.25;5010285;28;19926;-72
2022/03/25 17:15:31;;;;;;;;;;;;;;;15.25;27.67;98851.50;4973276;28;20372;-72
2022/03/25 17:18:00;;;;;;;;;;;;;;;15.26;27.78;98846.84;5008047;28;19945;-73
2022/03/25 17:20:30;;;;;;;;;;;;;;;15.12;27.79;98853.22;5006528;28;20299;-73
2022/03/25 17:22:58;;;;;;;;;;;;;;;15.10;27.81;98854.69;4997538;28;20391;-72
2022/03/25 17:25:26;;;;;;;;;;;;;;;15.05;28.02;98863.03;4994726;28;20372;-73
2022/03/25 17:27:56;;;;;;;;;;;;;;;14.99;28.04;98865.13;4993797;28;20185;-73
2022/03/25 17:30:26;;;;;;;;;;;;;;;14.93;28.90;98869.13;4979927;28;19926;-74
2022/03/25 17:32:55;;;;;;;;;;;;;;;14.91;28.73;98860.41;4996295;28;20426;-74
2022/03/25 17:35:24;;;;;;;;;;;;;;;14.86;28.41;98871.50;4975252;28;19926;-74
2022/03/25 17:37:54;;;;;;;;;;;;;;;14.79;28.41;98866.47;4995980;28;19956;-74
2022/03/25 17:40:22;;;;;;;;;;;;;;;14.67;28.95;98864.34;4997519;28;20469;-73
2022/03/25 17:43:11;;;;;;;;;;;;;;;14.54;28.75;98878.09;5004509;28;19926;-77
2022/03/25 17:45:40;;;;;;;;;;;;;;;14.50;28.71;98872.47;4996323;28;19925;-74
2022/03/25 17:48:09;;;;;;;;;;;;;;;14.36;29.26;98869.78;4983212;28;19930;-74
2022/03/25 17:50:40;;;;;;;;;;;;;;;14.29;29.32;98872.16;4987524;28;20021;-75
2022/03/25 17:53:09;;;;;;;;;;;;;;;14.32;28.95;98876.97;4977803;28;19992;-74
2022/03/25 17:55:42;;;;;;;;;;;;;;;14.28;29.18;98872.47;4992498;28;20475;-74
2022/03/25 17:58:17;;;;;;;;;;;;;;;14.15;29.18;98880.41;4995171;28;19936;-75
2022/03/25 18:00:57;;;;;;;;;;;;;;;14.09;29.27;98873.47;4994324;28;20055;-74
2022/03/25 18:03:35;;;;;;;;;;;;;;;13.94;29.55;98883.94;4999729;28;19925;-74
2022/03/25 18:06:15;;;;;;;;;;;;;;;13.91;29.62;98890.03;5002426;28;20383;-75
2022/03/25 18:08:51;;;;;;;;;;;;;;;13.96;29.70;98882.53;5010738;28;20020;-74
2022/03/25 18:11:20;;;;;;;;;;;;;;;13.80;29.37;98889.47;4994995;28;19941;-76
2022/03/25 18:13:49;;;;;;;;;;;;;;;13.72;29.72;98890.19;5000095;28;19925;-74
2022/03/25 18:16:24;;;;;;;;;;;;;;;13.67;29.69;98896.56;4977454;28;19930;-74
2022/03/25 18:18:55;;;;;;;;;;;;;;;13.63;29.73;98895.56;4991196;28;19941;-74
2022/03/25 18:24:19;;;;;;;;;;;;;;;13.49;29.76;98898.34;4989488;28;20004;-74
2022/03/25 18:26:47;;;;;;;;;;;;;;;13.40;30.34;98911.09;4994213;28;19925;-74
2022/03/25 18:29:16;;;;;;;;;;;;;;;13.30;30.20;98914.03;4977508;28;19925;-74
2022/03/25 18:31:47;;;;;;;;;;;;;;;13.26;30.13;98910.28;4991904;28;19929;-74
2022/03/25 18:34:16;;;;;;;;;;;;;;;13.17;30.28;98909.38;4996145;28;19933;-74
2022/03/25 18:37:09;;;;;;;;;;;;;;;13.24;30.39;98910.59;4994197;28;19925;-74
2022/03/25 18:39:53;;;;;;;;;;;;;;;13.24;30.19;98916.06;4978865;28;19925;-74
2022/03/25 18:42:30;;;;;;;;;;;;;;;13.14;30.28;98920.88;4993469;28;19934;-74
2022/03/25 18:45:05;;;;;;;;;;;;;;;13.04;30.73;98914.50;4995939;28;19933;-74
2022/03/25 18:48:01;;;;;;;;;;;;;;;12.99;30.61;98925.50;4994504;28;19926;-74
2022/03/25 18:50:55;;;;;;;;;;;;;;;13.03;30.54;98926.53;5007641;28;19926;-74
2022/03/25 18:53:28;;;;;;;;;;;;;;;12.89;30.81;98925.72;4976441;28;19932;-74
2022/03/25 18:56:04;;;;;;;;;;;;;;;12.75;31.07;98924.91;4993563;28;19925;-73
2022/03/25 18:58:32;;;;;;;;;;;;;;;12.76;30.99;98927.31;4996549;28;19926;-74
2022/03/25 19:01:03;;;;;;;;;;;;;;;12.82;31.01;98925.28;4993040;28;19975;-74
2022/03/25 19:03:42;;;;;;;;;;;;;;;12.76;30.92;98926.50;5005875;28;19925;-74
2022/03/25 19:06:13;;;;;;;;;;;;;;;12.76;31.43;98923.78;4998011;28;20024;-74
2022/03/25 19:08:59;;;;;;;;;;;;;;;12.63;31.41;98935.47;4992341;28;19930;-74
2022/03/25 19:11:35;;;;;;;;;;;;;;;12.57;31.37;98935.56;5011018;28;19944;-74
2022/03/25 19:14:06;;;;;;;;;;;;;;;12.42;31.65;98938.53;5009481;28;19926;-74
2022/03/25 19:16:38;;;;;;;;;;;;;;;12.52;31.70;98943.84;4985761;28;19926;-74
2022/03/25 19:19:07;;;;;;;;;;;;;;;12.53;31.55;98948.16;4994438;28;20471;-74
2022/03/25 19:21:39;;;;;;;;;;;;;;;12.55;31.44;98948.66;5006062;28;19930;-74
2022/03/25 19:24:14;;;;;;;;;;;;;;;12.40;32.13;98950.84;4994111;28;19926;-74